Kindersley Airport, Saskatchewan

Past 24 Hour Conditions

Date / Time
(CST)
Conditions Temp
(°F)
Humidity
(%)
Dew Point
(°F)
Wind
(mph)
Pressure
(inches)
Vis
(mi)
Wind Chill
27 November 2014
13:00 Light Snow 17 86 14 ENE 18 30.0 8 1
12:00 Light Snow 19 87 16 ENE 20 30.0 0.5 3
11:00 Light Snow 19 88 16 ENE 18 30.0 0.6 5
10:00 Light Snow 19 89 16 E 16 30.0 0.6 4
9:00 Light Snow 20   89 17 E 13 30.1 3 7
8:00 Light Snow 19 90 16 E 13 30.1 3 6
7:00 Light Snow 17 90 15 ESE 13 30.1 10 4
6:00 Cloudy 15 89 12 E 10 30.1 15 2
5:00 Cloudy 14 88 11 E 8 30.2 15 2
4:00 Cloudy 11 87 8 E 11 30.2 15 -2
3:00 Cloudy 10 87 7 ENE 9 30.2 15 -3
2:00 Mostly Cloudy 9 86 5 E 7 30.3 15 -2
1:00 Mostly Cloudy 9 85 5 ENE 7 30.3 15 -3
00:00 Mostly Cloudy 8 86 4 E 4 30.3 15 -1
26 November 2014
23:00 Mostly Cloudy 8 86 5 ESE 4 30.3 15 0
22:00 Mostly Cloudy 6   86 3 SE 5 30.3 15 -3
21:00 Mostly Cloudy 7 86 3 ESE 6 30.3 15 -3
20:00 Partly Cloudy 6   86 3 E 6 30.4 15 -4
19:00 Mostly Cloudy 10 86 6 E 4 30.4 15 2
18:00 Mostly Cloudy 12 85 9 ESE 6 30.4 15 3
17:00 Mostly Cloudy 14 83 10 SSE 6 30.4 15 5
16:00 Mostly Cloudy 15 82 11 SSE 7 30.4 15 6
15:00 Mostly Cloudy 15 82 10 SSE 7 30.4 15 5
14:00 Cloudy 14 82 10 S 10 30.4 15 1
13:00 Mostly Cloudy 14 82 9 SSE 10 30.4 15 1
N/A Not available
↑ Highest temperature
↓ Lowest temperature
* Value not significant.

If you require additional historical weather information, please visit Climate Data Online.

Date modified: